sensor_id;sensor_type;location;lat;lon;timestamp;pressure;altitude;pressure_sealevel;temperature;humidity
3668;BME280;24099;47.102;15.440;2022-08-16T00:01:21;96279.66;;;17.78;100.00
3668;BME280;24099;47.102;15.440;2022-08-16T00:03:49;96282.34;;;17.61;100.00
3668;BME280;24099;47.102;15.440;2022-08-16T00:06:18;96281.16;;;17.69;100.00
3668;BME280;24099;47.102;15.440;2022-08-16T00:08:46;96285.56;;;17.63;100.00
3668;BME280;24099;47.102;15.440;2022-08-16T00:11:14;96276.94;;;17.73;100.00
3668;BME280;24099;47.102;15.440;2022-08-16T00:13:42;96283.88;;;17.74;100.00
3668;BME280;24099;47.102;15.440;2022-08-16T00:16:10;96283.81;;;17.69;100.00
3668;BME280;24099;47.102;15.440;2022-08-16T00:18:37;96282.50;;;17.71;100.00
3668;BME280;24099;47.102;15.440;2022-08-16T00:21:05;96280.50;;;17.62;100.00
3668;BME280;24099;47.102;15.440;2022-08-16T00:23:34;96275.38;;;17.55;100.00
3668;BME280;24099;47.102;15.440;2022-08-16T00:26:01;96277.16;;;17.49;100.00
3668;BME280;24099;47.102;15.440;2022-08-16T00:28:29;96277.34;;;17.43;100.00
3668;BME280;24099;47.102;15.440;2022-08-16T00:30:56;96279.31;;;17.52;100.00
3668;BME280;24099;47.102;15.440;2022-08-16T00:33:24;96266.34;;;17.56;100.00
3668;BME280;24099;47.102;15.440;2022-08-16T00:35:51;96263.59;;;17.51;100.00
3668;BME280;24099;47.102;15.440;2022-08-16T00:38:18;96257.25;;;17.52;100.00
3668;BME280;24099;47.102;15.440;2022-08-16T00:40:52;96255.63;;;17.29;100.00
3668;BME280;24099;47.102;15.440;2022-08-16T00:43:29;96255.06;;;17.49;100.00
3668;BME280;24099;47.102;15.440;2022-08-16T00:46:06;96269.34;;;17.43;100.00
3668;BME280;24099;47.102;15.440;2022-08-16T00:48:36;96258.91;;;17.58;100.00
3668;BME280;24099;47.102;15.440;2022-08-16T00:51:04;96271.59;;;17.51;100.00
3668;BME280;24099;47.102;15.440;2022-08-16T00:53:33;96272.50;;;17.40;100.00
3668;BME280;24099;47.102;15.440;2022-08-16T00:56:06;96279.31;;;17.31;100.00
3668;BME280;24099;47.102;15.440;2022-08-16T00:58:39;96281.03;;;17.42;100.00
3668;BME280;24099;47.102;15.440;2022-08-16T01:01:09;96278.63;;;17.02;100.00
3668;BME280;24099;47.102;15.440;2022-08-16T01:03:39;96286.44;;;17.08;100.00
3668;BME280;24099;47.102;15.440;2022-08-16T01:06:09;96294.59;;;16.85;100.00
3668;BME280;24099;47.102;15.440;2022-08-16T01:08:38;96291.47;;;16.88;100.00
3668;BME280;24099;47.102;15.440;2022-08-16T01:11:08;96295.88;;;16.99;100.00
3668;BME280;24099;47.102;15.440;2022-08-16T01:13:37;96300.47;;;17.04;100.00
3668;BME280;24099;47.102;15.440;2022-08-16T01:16:10;96295.66;;;16.84;100.00
3668;BME280;24099;47.102;15.440;2022-08-16T01:18:44;96302.09;;;16.88;100.00
3668;BME280;24099;47.102;15.440;2022-08-16T01:21:24;96303.00;;;16.94;100.00
3668;BME280;24099;47.102;15.440;2022-08-16T01:24:23;96302.81;;;16.83;100.00
3668;BME280;24099;47.102;15.440;2022-08-16T01:26:55;96301.41;;;16.76;100.00
3668;BME280;24099;47.102;15.440;2022-08-16T01:29:30;96298.78;;;16.81;100.00
3668;BME280;24099;47.102;15.440;2022-08-16T01:32:00;96303.53;;;16.79;100.00
3668;BME280;24099;47.102;15.440;2022-08-16T01:34:28;96301.66;;;16.63;100.00
3668;BME280;24099;47.102;15.440;2022-08-16T01:36:59;96304.78;;;16.71;100.00
3668;BME280;24099;47.102;15.440;2022-08-16T01:39:29;96289.63;;;16.88;100.00
3668;BME280;24099;47.102;15.440;2022-08-16T01:41:57;96305.91;;;16.92;100.00
3668;BME280;24099;47.102;15.440;2022-08-16T01:44:25;96297.59;;;16.72;100.00
3668;BME280;24099;47.102;15.440;2022-08-16T01:46:53;96306.47;;;16.77;100.00
3668;BME280;24099;47.102;15.440;2022-08-16T01:49:32;96307.81;;;16.97;100.00
3668;BME280;24099;47.102;15.440;2022-08-16T01:52:04;96298.41;;;16.72;100.00
3668;BME280;24099;47.102;15.440;2022-08-16T01:54:47;96302.28;;;17.20;100.00
3668;BME280;24099;47.102;15.440;2022-08-16T01:57:15;96309.81;;;17.06;100.00
3668;BME280;24099;47.102;15.440;2022-08-16T01:59:42;96314.63;;;17.26;100.00
3668;BME280;24099;47.102;15.440;2022-08-16T02:02:14;96323.91;;;17.07;100.00
3668;BME280;24099;47.102;15.440;2022-08-16T02:04:42;96316.72;;;17.24;100.00
3668;BME280;24099;47.102;15.440;2022-08-16T02:07:10;96315.25;;;17.33;100.00
3668;BME280;24099;47.102;15.440;2022-08-16T02:09:40;96326.56;;;17.07;100.00
3668;BME280;24099;47.102;15.440;2022-08-16T02:12:10;96316.31;;;17.32;100.00
3668;BME280;24099;47.102;15.440;2022-08-16T02:14:39;96314.38;;;17.28;100.00
3668;BME280;24099;47.102;15.440;2022-08-16T02:17:09;96317.59;;;17.30;100.00
3668;BME280;24099;47.102;15.440;2022-08-16T02:19:40;96309.63;;;17.30;100.00
3668;BME280;24099;47.102;15.440;2022-08-16T02:22:13;96312.91;;;17.37;100.00
3668;BME280;24099;47.102;15.440;2022-08-16T02:24:42;96310.38;;;17.47;100.00
3668;BME280;24099;47.102;15.440;2022-08-16T02:27:11;96302.50;;;17.74;100.00
3668;BME280;24099;47.102;15.440;2022-08-16T02:29:39;96308.22;;;18.09;100.00
3668;BME280;24099;47.102;15.440;2022-08-16T02:32:09;96321.63;;;17.93;100.00
3668;BME280;24099;47.102;15.440;2022-08-16T02:34:37;96327.69;;;17.88;100.00
3668;BME280;24099;47.102;15.440;2022-08-16T02:37:05;96329.53;;;18.09;100.00
3668;BME280;24099;47.102;15.440;2022-08-16T02:39:34;96328.44;;;18.32;100.00
3668;BME280;24099;47.102;15.440;2022-08-16T02:42:01;96326.88;;;18.36;100.00
3668;BME280;24099;47.102;15.440;2022-08-16T02:44:30;96335.13;;;18.35;100.00
3668;BME280;24099;47.102;15.440;2022-08-16T02:46:58;96341.47;;;18.55;100.00
3668;BME280;24099;47.102;15.440;2022-08-16T02:49:28;96344.28;;;18.71;100.00
3668;BME280;24099;47.102;15.440;2022-08-16T02:51:55;96361.53;;;18.90;100.00
3668;BME280;24099;47.102;15.440;2022-08-16T02:54:23;96360.28;;;18.71;100.00
3668;BME280;24099;47.102;15.440;2022-08-16T02:56:51;96351.16;;;18.93;100.00
3668;BME280;24099;47.102;15.440;2022-08-16T02:59:19;96355.38;;;18.89;100.00
3668;BME280;24099;47.102;15.440;2022-08-16T03:01:48;96339.19;;;18.96;100.00
3668;BME280;24099;47.102;15.440;2022-08-16T03:04:21;96342.97;;;19.05;100.00
3668;BME280;24099;47.102;15.440;2022-08-16T03:06:49;96340.41;;;19.20;100.00
3668;BME280;24099;47.102;15.440;2022-08-16T03:09:22;96337.28;;;19.34;100.00
3668;BME280;24099;47.102;15.440;2022-08-16T03:11:53;96338.91;;;19.35;100.00
3668;BME280;24099;47.102;15.440;2022-08-16T03:14:21;96333.44;;;19.19;100.00
3668;BME280;24099;47.102;15.440;2022-08-16T03:16:51;96333.84;;;19.01;100.00
3668;BME280;24099;47.102;15.440;2022-08-16T03:19:19;96325.13;;;19.11;100.00
3668;BME280;24099;47.102;15.440;2022-08-16T03:21:49;96325.78;;;19.28;100.00
3668;BME280;24099;47.102;15.440;2022-08-16T03:24:17;96324.13;;;19.17;100.00
3668;BME280;24099;47.102;15.440;2022-08-16T03:26:45;96322.84;;;19.30;100.00
3668;BME280;24099;47.102;15.440;2022-08-16T03:29:12;96317.53;;;19.30;100.00
3668;BME280;24099;47.102;15.440;2022-08-16T03:31:41;96326.38;;;19.35;100.00
3668;BME280;24099;47.102;15.440;2022-08-16T03:34:10;96317.81;;;19.33;100.00
3668;BME280;24099;47.102;15.440;2022-08-16T03:36:38;96321.84;;;19.41;100.00
3668;BME280;24099;47.102;15.440;2022-08-16T03:39:06;96322.78;;;19.19;100.00
3668;BME280;24099;47.102;15.440;2022-08-16T03:41:35;96316.50;;;19.36;100.00
3668;BME280;24099;47.102;15.440;2022-08-16T03:44:05;96324.50;;;19.36;100.00
3668;BME280;24099;47.102;15.440;2022-08-16T03:46:36;96318.38;;;19.40;100.00
3668;BME280;24099;47.102;15.440;2022-08-16T03:49:04;96322.91;;;19.40;100.00
3668;BME280;24099;47.102;15.440;2022-08-16T03:51:38;96322.28;;;19.22;100.00
3668;BME280;24099;47.102;15.440;2022-08-16T03:54:08;96327.19;;;19.41;100.00
3668;BME280;24099;47.102;15.440;2022-08-16T03:56:36;96322.94;;;19.45;100.00
3668;BME280;24099;47.102;15.440;2022-08-16T03:59:04;96337.50;;;19.27;100.00
3668;BME280;24099;47.102;15.440;2022-08-16T04:01:41;96327.69;;;18.96;100.00
3668;BME280;24099;47.102;15.440;2022-08-16T04:04:09;96325.72;;;19.18;100.00
3668;BME280;24099;47.102;15.440;2022-08-16T04:06:38;96329.72;;;19.15;100.00
3668;BME280;24099;47.102;15.440;2022-08-16T04:09:06;96344.50;;;19.33;100.00
3668;BME280;24099;47.102;15.440;2022-08-16T04:11:34;96340.66;;;19.56;100.00
3668;BME280;24099;47.102;15.440;2022-08-16T04:14:01;96359.66;;;19.65;100.00
3668;BME280;24099;47.102;15.440;2022-08-16T04:16:34;96362.31;;;19.65;100.00
3668;BME280;24099;47.102;15.440;2022-08-16T04:19:20;96368.41;;;19.55;100.00
3668;BME280;24099;47.102;15.440;2022-08-16T04:21:53;96372.44;;;19.57;100.00
3668;BME280;24099;47.102;15.440;2022-08-16T04:24:24;96367.69;;;19.70;100.00
3668;BME280;24099;47.102;15.440;2022-08-16T04:26:52;96373.63;;;19.82;100.00
3668;BME280;24099;47.102;15.440;2022-08-16T04:29:20;96379.25;;;19.85;100.00
3668;BME280;24099;47.102;15.440;2022-08-16T04:31:49;96376.81;;;19.79;100.00
3668;BME280;24099;47.102;15.440;2022-08-16T04:34:17;96376.63;;;20.01;100.00
3668;BME280;24099;47.102;15.440;2022-08-16T04:36:48;96379.59;;;20.04;100.00
3668;BME280;24099;47.102;15.440;2022-08-16T04:39:17;96384.97;;;20.09;100.00
3668;BME280;24099;47.102;15.440;2022-08-16T04:41:45;96390.88;;;20.16;100.00
3668;BME280;24099;47.102;15.440;2022-08-16T04:44:12;96387.16;;;20.27;100.00
3668;BME280;24099;47.102;15.440;2022-08-16T04:46:40;96394.63;;;20.20;100.00
3668;BME280;24099;47.102;15.440;2022-08-16T04:49:08;96388.47;;;20.15;100.00
3668;BME280;24099;47.102;15.440;2022-08-16T04:51:39;96390.72;;;20.38;100.00
3668;BME280;24099;47.102;15.440;2022-08-16T04:54:08;96407.81;;;20.42;100.00
3668;BME280;24099;47.102;15.440;2022-08-16T04:56:37;96407.00;;;20.42;100.00
3668;BME280;24099;47.102;15.440;2022-08-16T04:59:06;96398.94;;;20.32;100.00
3668;BME280;24099;47.102;15.440;2022-08-16T05:01:34;96404.03;;;20.33;100.00
3668;BME280;24099;47.102;15.440;2022-08-16T05:04:03;96406.19;;;20.36;100.00
3668;BME280;24099;47.102;15.440;2022-08-16T05:06:40;96407.50;;;20.28;100.00
3668;BME280;24099;47.102;15.440;2022-08-16T05:09:09;96411.53;;;20.36;100.00
3668;BME280;24099;47.102;15.440;2022-08-16T05:11:38;96406.97;;;20.32;100.00
3668;BME280;24099;47.102;15.440;2022-08-16T05:14:06;96402.44;;;20.32;100.00
3668;BME280;24099;47.102;15.440;2022-08-16T05:16:37;96409.63;;;20.26;100.00
3668;BME280;24099;47.102;15.440;2022-08-16T05:19:08;96414.69;;;20.28;100.00
3668;BME280;24099;47.102;15.440;2022-08-16T05:21:37;96413.91;;;20.27;100.00
3668;BME280;24099;47.102;15.440;2022-08-16T05:24:08;96409.91;;;20.30;100.00
3668;BME280;24099;47.102;15.440;2022-08-16T05:26:38;96413.34;;;20.25;100.00
3668;BME280;24099;47.102;15.440;2022-08-16T05:29:06;96418.19;;;20.34;100.00
3668;BME280;24099;47.102;15.440;2022-08-16T05:31:36;96420.94;;;20.44;100.00
3668;BME280;24099;47.102;15.440;2022-08-16T05:34:04;96416.34;;;20.34;100.00
3668;BME280;24099;47.102;15.440;2022-08-16T05:36:34;96420.91;;;20.39;100.00
3668;BME280;24099;47.102;15.440;2022-08-16T05:39:03;96423.56;;;20.34;100.00
3668;BME280;24099;47.102;15.440;2022-08-16T05:41:31;96428.16;;;20.38;100.00
3668;BME280;24099;47.102;15.440;2022-08-16T05:44:01;96428.44;;;20.47;100.00
3668;BME280;24099;47.102;15.440;2022-08-16T05:46:38;96429.81;;;20.54;100.00
3668;BME280;24099;47.102;15.440;2022-08-16T05:49:14;96418.53;;;20.47;100.00
3668;BME280;24099;47.102;15.440;2022-08-16T05:51:43;96426.25;;;20.39;100.00
3668;BME280;24099;47.102;15.440;2022-08-16T05:54:15;96431.06;;;20.42;100.00
3668;BME280;24099;47.102;15.440;2022-08-16T05:56:46;96430.88;;;20.53;100.00
3668;BME280;24099;47.102;15.440;2022-08-16T05:59:17;96435.19;;;20.75;100.00
3668;BME280;24099;47.102;15.440;2022-08-16T06:01:45;96431.94;;;20.62;100.00
3668;BME280;24099;47.102;15.440;2022-08-16T06:04:16;96438.34;;;20.61;100.00
